sensor_id;sensor_type;location;lat;lon;timestamp;P1;durP1;ratioP1;P2;durP2;ratioP2
51485;SDS011;37565;51.352;6.412;2022-07-23T00:00:52;4.57;;;2.42;;
51485;SDS011;37565;51.352;6.412;2022-07-23T00:03:20;4.03;;;2.17;;
51485;SDS011;37565;51.352;6.412;2022-07-23T00:05:48;4.25;;;2.10;;
51485;SDS011;37565;51.352;6.412;2022-07-23T00:08:16;5.50;;;2.40;;
51485;SDS011;37565;51.352;6.412;2022-07-23T00:10:44;6.00;;;2.17;;
51485;SDS011;37565;51.352;6.412;2022-07-23T00:13:12;5.18;;;2.53;;
51485;SDS011;37565;51.352;6.412;2022-07-23T00:15:40;4.32;;;2.92;;
51485;SDS011;37565;51.352;6.412;2022-07-23T00:18:10;4.43;;;2.50;;
51485;SDS011;37565;51.352;6.412;2022-07-23T00:20:38;3.05;;;2.20;;
51485;SDS011;37565;51.352;6.412;2022-07-23T00:23:06;3.95;;;2.05;;
51485;SDS011;37565;51.352;6.412;2022-07-23T00:25:34;3.17;;;1.98;;
51485;SDS011;37565;51.352;6.412;2022-07-23T00:28:02;4.80;;;2.17;;
51485;SDS011;37565;51.352;6.412;2022-07-23T00:30:31;4.80;;;2.47;;
51485;SDS011;37565;51.352;6.412;2022-07-23T00:33:00;2.83;;;2.00;;
51485;SDS011;37565;51.352;6.412;2022-07-23T00:35:34;3.65;;;2.03;;
51485;SDS011;37565;51.352;6.412;2022-07-23T00:38:03;4.53;;;2.17;;
51485;SDS011;37565;51.352;6.412;2022-07-23T00:40:32;3.03;;;1.90;;
51485;SDS011;37565;51.352;6.412;2022-07-23T00:43:00;4.47;;;2.20;;
51485;SDS011;37565;51.352;6.412;2022-07-23T00:45:28;3.38;;;1.80;;
51485;SDS011;37565;51.352;6.412;2022-07-23T00:47:57;2.80;;;1.75;;
51485;SDS011;37565;51.352;6.412;2022-07-23T00:50:25;4.22;;;2.30;;
51485;SDS011;37565;51.352;6.412;2022-07-23T00:52:54;3.40;;;2.20;;
51485;SDS011;37565;51.352;6.412;2022-07-23T00:55:23;2.65;;;1.90;;
51485;SDS011;37565;51.352;6.412;2022-07-23T00:57:51;3.38;;;1.90;;
51485;SDS011;37565;51.352;6.412;2022-07-23T01:00:21;3.05;;;2.03;;
51485;SDS011;37565;51.352;6.412;2022-07-23T01:02:49;3.88;;;2.20;;
51485;SDS011;37565;51.352;6.412;2022-07-23T01:05:17;3.13;;;1.92;;
51485;SDS011;37565;51.352;6.412;2022-07-23T01:07:48;3.97;;;1.90;;
51485;SDS011;37565;51.352;6.412;2022-07-23T01:10:22;2.80;;;2.25;;
51485;SDS011;37565;51.352;6.412;2022-07-23T01:13:00;3.35;;;1.80;;
51485;SDS011;37565;51.352;6.412;2022-07-23T01:15:30;2.75;;;2.00;;
51485;SDS011;37565;51.352;6.412;2022-07-23T01:17:58;2.20;;;1.92;;
51485;SDS011;37565;51.352;6.412;2022-07-23T01:20:26;2.80;;;1.90;;
51485;SDS011;37565;51.352;6.412;2022-07-23T01:22:56;2.47;;;1.63;;
51485;SDS011;37565;51.352;6.412;2022-07-23T01:25:24;2.47;;;1.65;;
51485;SDS011;37565;51.352;6.412;2022-07-23T01:27:52;3.25;;;2.00;;
51485;SDS011;37565;51.352;6.412;2022-07-23T01:30:21;1.88;;;1.70;;
51485;SDS011;37565;51.352;6.412;2022-07-23T01:32:49;2.97;;;1.80;;
51485;SDS011;37565;51.352;6.412;2022-07-23T01:35:17;3.40;;;1.80;;
51485;SDS011;37565;51.352;6.412;2022-07-23T01:37:45;3.08;;;1.88;;
51485;SDS011;37565;51.352;6.412;2022-07-23T01:40:14;2.95;;;1.70;;
51485;SDS011;37565;51.352;6.412;2022-07-23T01:42:44;2.58;;;1.88;;
51485;SDS011;37565;51.352;6.412;2022-07-23T01:45:12;4.65;;;1.90;;
51485;SDS011;37565;51.352;6.412;2022-07-23T01:47:40;2.55;;;1.77;;
51485;SDS011;37565;51.352;6.412;2022-07-23T01:50:09;2.00;;;1.58;;
51485;SDS011;37565;51.352;6.412;2022-07-23T01:52:37;1.95;;;1.73;;
51485;SDS011;37565;51.352;6.412;2022-07-23T01:55:05;4.07;;;1.90;;
51485;SDS011;37565;51.352;6.412;2022-07-23T01:57:35;2.28;;;1.63;;
51485;SDS011;37565;51.352;6.412;2022-07-23T02:00:04;1.90;;;1.50;;
51485;SDS011;37565;51.352;6.412;2022-07-23T02:02:33;2.45;;;1.80;;
51485;SDS011;37565;51.352;6.412;2022-07-23T02:05:01;3.08;;;1.65;;
51485;SDS011;37565;51.352;6.412;2022-07-23T02:07:29;2.53;;;1.52;;
51485;SDS011;37565;51.352;6.412;2022-07-23T02:10:00;2.15;;;1.52;;
51485;SDS011;37565;51.352;6.412;2022-07-23T02:12:28;2.03;;;1.83;;
51485;SDS011;37565;51.352;6.412;2022-07-23T02:14:57;2.00;;;1.40;;
51485;SDS011;37565;51.352;6.412;2022-07-23T02:17:25;2.30;;;1.65;;
51485;SDS011;37565;51.352;6.412;2022-07-23T02:19:53;1.73;;;1.42;;
51485;SDS011;37565;51.352;6.412;2022-07-23T02:22:21;3.25;;;2.03;;
51485;SDS011;37565;51.352;6.412;2022-07-23T02:24:49;2.47;;;1.90;;
51485;SDS011;37565;51.352;6.412;2022-07-23T02:27:17;2.50;;;1.50;;
51485;SDS011;37565;51.352;6.412;2022-07-23T02:29:45;2.42;;;1.58;;
51485;SDS011;37565;51.352;6.412;2022-07-23T02:32:15;3.45;;;1.90;;
51485;SDS011;37565;51.352;6.412;2022-07-23T02:34:43;1.83;;;1.70;;
51485;SDS011;37565;51.352;6.412;2022-07-23T02:37:11;2.55;;;1.70;;
51485;SDS011;37565;51.352;6.412;2022-07-23T02:39:39;2.10;;;1.60;;
51485;SDS011;37565;51.352;6.412;2022-07-23T02:42:07;1.92;;;1.73;;
51485;SDS011;37565;51.352;6.412;2022-07-23T02:44:35;1.92;;;1.73;;
51485;SDS011;37565;51.352;6.412;2022-07-23T02:47:03;2.10;;;1.67;;
51485;SDS011;37565;51.352;6.412;2022-07-23T02:49:33;1.80;;;1.50;;
51485;SDS011;37565;51.352;6.412;2022-07-23T02:52:01;1.55;;;1.25;;
51485;SDS011;37565;51.352;6.412;2022-07-23T02:54:29;1.55;;;1.33;;
51485;SDS011;37565;51.352;6.412;2022-07-23T02:56:57;2.70;;;1.70;;
51485;SDS011;37565;51.352;6.412;2022-07-23T02:59:25;3.08;;;1.65;;
51485;SDS011;37565;51.352;6.412;2022-07-23T03:01:53;3.20;;;2.13;;
51485;SDS011;37565;51.352;6.412;2022-07-23T03:04:21;4.38;;;1.50;;
51485;SDS011;37565;51.352;6.412;2022-07-23T03:06:51;2.17;;;1.75;;
51485;SDS011;37565;51.352;6.412;2022-07-23T03:09:19;1.75;;;1.48;;
51485;SDS011;37565;51.352;6.412;2022-07-23T03:11:47;1.70;;;1.48;;
51485;SDS011;37565;51.352;6.412;2022-07-23T03:14:15;3.05;;;1.67;;
51485;SDS011;37565;51.352;6.412;2022-07-23T03:16:43;1.83;;;1.40;;
51485;SDS011;37565;51.352;6.412;2022-07-23T03:19:11;1.92;;;1.38;;
51485;SDS011;37565;51.352;6.412;2022-07-23T03:21:39;3.10;;;1.60;;
51485;SDS011;37565;51.352;6.412;2022-07-23T03:24:08;1.75;;;1.65;;
51485;SDS011;37565;51.352;6.412;2022-07-23T03:26:37;2.03;;;1.45;;
51485;SDS011;37565;51.352;6.412;2022-07-23T03:29:06;1.70;;;1.30;;
51485;SDS011;37565;51.352;6.412;2022-07-23T03:31:33;1.67;;;1.40;;
51485;SDS011;37565;51.352;6.412;2022-07-23T03:34:02;1.67;;;1.40;;
51485;SDS011;37565;51.352;6.412;2022-07-23T03:36:30;1.70;;;1.30;;
51485;SDS011;37565;51.352;6.412;2022-07-23T03:38:58;3.13;;;1.50;;
51485;SDS011;37565;51.352;6.412;2022-07-23T03:41:28;1.50;;;1.40;;
51485;SDS011;37565;51.352;6.412;2022-07-23T03:43:56;2.15;;;1.48;;
51485;SDS011;37565;51.352;6.412;2022-07-23T03:46:24;1.50;;;1.40;;
51485;SDS011;37565;51.352;6.412;2022-07-23T03:48:52;1.65;;;1.27;;
51485;SDS011;37565;51.352;6.412;2022-07-23T03:51:24;2.50;;;1.60;;
51485;SDS011;37565;51.352;6.412;2022-07-23T03:53:52;2.13;;;1.50;;
51485;SDS011;37565;51.352;6.412;2022-07-23T03:56:21;1.60;;;1.50;;
51485;SDS011;37565;51.352;6.412;2022-07-23T03:58:51;1.30;;;1.20;;
51485;SDS011;37565;51.352;6.412;2022-07-23T04:01:19;1.30;;;1.15;;
51485;SDS011;37565;51.352;6.412;2022-07-23T04:03:47;2.13;;;1.60;;
51485;SDS011;37565;51.352;6.412;2022-07-23T04:06:15;1.85;;;1.50;;
51485;SDS011;37565;51.352;6.412;2022-07-23T04:08:44;2.05;;;1.67;;
51485;SDS011;37565;51.352;6.412;2022-07-23T04:11:12;1.42;;;1.23;;
51485;SDS011;37565;51.352;6.412;2022-07-23T04:13:40;1.60;;;1.50;;
51485;SDS011;37565;51.352;6.412;2022-07-23T04:16:10;2.03;;;1.50;;
51485;SDS011;37565;51.352;6.412;2022-07-23T04:18:38;1.40;;;1.30;;
51485;SDS011;37565;51.352;6.412;2022-07-23T04:21:06;1.10;;;1.00;;
51485;SDS011;37565;51.352;6.412;2022-07-23T04:23:34;1.55;;;1.10;;
51485;SDS011;37565;51.352;6.412;2022-07-23T04:26:02;2.65;;;1.70;;
51485;SDS011;37565;51.352;6.412;2022-07-23T04:28:30;2.20;;;1.10;;
51485;SDS011;37565;51.352;6.412;2022-07-23T04:30:58;3.20;;;1.40;;
51485;SDS011;37565;51.352;6.412;2022-07-23T04:33:27;1.20;;;1.10;;
51485;SDS011;37565;51.352;6.412;2022-07-23T04:35:55;1.40;;;1.30;;
51485;SDS011;37565;51.352;6.412;2022-07-23T04:38:23;1.42;;;1.20;;
51485;SDS011;37565;51.352;6.412;2022-07-23T04:40:51;1.30;;;1.20;;
51485;SDS011;37565;51.352;6.412;2022-07-23T04:43:19;1.40;;;1.30;;
51485;SDS011;37565;51.352;6.412;2022-07-23T04:45:47;1.42;;;0.90;;
51485;SDS011;37565;51.352;6.412;2022-07-23T04:48:16;1.63;;;1.00;;
51485;SDS011;37565;51.352;6.412;2022-07-23T04:50:45;1.40;;;1.30;;
51485;SDS011;37565;51.352;6.412;2022-07-23T04:53:13;1.63;;;1.20;;
51485;SDS011;37565;51.352;6.412;2022-07-23T04:55:41;1.40;;;1.30;;
51485;SDS011;37565;51.352;6.412;2022-07-23T04:58:09;1.00;;;1.00;;
51485;SDS011;37565;51.352;6.412;2022-07-23T05:00:38;1.23;;;1.00;;
51485;SDS011;37565;51.352;6.412;2022-07-23T05:03:08;1.10;;;1.00;;
51485;SDS011;37565;51.352;6.412;2022-07-23T05:05:36;1.40;;;1.23;;
51485;SDS011;37565;51.352;6.412;2022-07-23T05:08:06;1.50;;;1.20;;
51485;SDS011;37565;51.352;6.412;2022-07-23T05:10:35;2.05;;;1.08;;
51485;SDS011;37565;51.352;6.412;2022-07-23T05:13:03;1.50;;;1.25;;
51485;SDS011;37565;51.352;6.412;2022-07-23T05:15:31;1.23;;;1.13;;
51485;SDS011;37565;51.352;6.412;2022-07-23T05:17:59;1.13;;;1.02;;
51485;SDS011;37565;51.352;6.412;2022-07-23T05:20:27;1.17;;;1.08;;
51485;SDS011;37565;51.352;6.412;2022-07-23T05:22:55;1.25;;;1.10;;
51485;SDS011;37565;51.352;6.412;2022-07-23T05:25:24;1.10;;;1.00;;
51485;SDS011;37565;51.352;6.412;2022-07-23T05:27:53;1.17;;;1.10;;
51485;SDS011;37565;51.352;6.412;2022-07-23T05:30:21;1.08;;;1.00;;
51485;SDS011;37565;51.352;6.412;2022-07-23T05:32:49;1.95;;;1.38;;
51485;SDS011;37565;51.352;6.412;2022-07-23T05:35:17;0.80;;;0.80;;
51485;SDS011;37565;51.352;6.412;2022-07-23T05:37:45;1.25;;;0.90;;
51485;SDS011;37565;51.352;6.412;2022-07-23T05:40:13;1.15;;;1.05;;
51485;SDS011;37565;51.352;6.412;2022-07-23T05:42:42;1.10;;;1.00;;
51485;SDS011;37565;51.352;6.412;2022-07-23T05:45:10;0.98;;;0.93;;
51485;SDS011;37565;51.352;6.412;2022-07-23T05:47:39;1.10;;;0.98;;
51485;SDS011;37565;51.352;6.412;2022-07-23T05:50:08;1.27;;;0.90;;
51485;SDS011;37565;51.352;6.412;2022-07-23T05:52:37;1.25;;;1.00;;
51485;SDS011;37565;51.352;6.412;2022-07-23T05:55:06;0.88;;;0.88;;
51485;SDS011;37565;51.352;6.412;2022-07-23T05:57:35;1.35;;;1.05;;
51485;SDS011;37565;51.352;6.412;2022-07-23T06:00:06;1.00;;;0.90;;
51485;SDS011;37565;51.352;6.412;2022-07-23T06:02:35;0.90;;;0.90;;
51485;SDS011;37565;51.352;6.412;2022-07-23T06:05:04;1.20;;;1.10;;
51485;SDS011;37565;51.352;6.412;2022-07-23T06:07:34;1.20;;;1.08;;
51485;SDS011;37565;51.352;6.412;2022-07-23T06:10:02;1.50;;;1.20;;
51485;SDS011;37565;51.352;6.412;2022-07-23T06:12:31;1.40;;;1.30;;
51485;SDS011;37565;51.352;6.412;2022-07-23T06:14:59;1.10;;;1.00;;
51485;SDS011;37565;51.352;6.412;2022-07-23T06:17:28;0.70;;;0.70;;
51485;SDS011;37565;51.352;6.412;2022-07-23T06:19:57;1.15;;;0.90;;
51485;SDS011;37565;51.352;6.412;2022-07-23T06:22:24;1.23;;;1.13;;
51485;SDS011;37565;51.352;6.412;2022-07-23T06:24:53;0.93;;;0.80;;
51485;SDS011;37565;51.352;6.412;2022-07-23T06:27:20;1.08;;;1.00;;
51485;SDS011;37565;51.352;6.412;2022-07-23T06:29:52;1.00;;;0.90;;
51485;SDS011;37565;51.352;6.412;2022-07-23T06:32:20;1.17;;;1.05;;
51485;SDS011;37565;51.352;6.412;2022-07-23T06:34:49;0.90;;;0.90;;
51485;SDS011;37565;51.352;6.412;2022-07-23T06:37:17;1.13;;;0.93;;
51485;SDS011;37565;51.352;6.412;2022-07-23T06:39:45;0.70;;;0.70;;
51485;SDS011;37565;51.352;6.412;2022-07-23T06:42:14;1.45;;;0.90;;
51485;SDS011;37565;51.352;6.412;2022-07-23T06:44:42;0.90;;;0.90;;
51485;SDS011;37565;51.352;6.412;2022-07-23T06:47:10;0.98;;;0.90;;
51485;SDS011;37565;51.352;6.412;2022-07-23T06:49:38;1.48;;;1.10;;
51485;SDS011;37565;51.352;6.412;2022-07-23T06:52:08;1.00;;;0.98;;
51485;SDS011;37565;51.352;6.412;2022-07-23T06:54:36;0.98;;;0.98;;
51485;SDS011;37565;51.352;6.412;2022-07-23T06:57:04;0.80;;;0.80;;
51485;SDS011;37565;51.352;6.412;2022-07-23T06:59:32;1.10;;;1.00;;
51485;SDS011;37565;51.352;6.412;2022-07-23T07:02:02;1.30;;;1.20;;
51485;SDS011;37565;51.352;6.412;2022-07-23T07:04:30;0.90;;;0.90;;
51485;SDS011;37565;51.352;6.412;2022-07-23T07:06:58;1.02;;;0.70;;
51485;SDS011;37565;51.352;6.412;2022-07-23T07:09:28;1.10;;;0.82;;
51485;SDS011;37565;51.352;6.412;2022-07-23T07:11:56;0.93;;;0.82;;
51485;SDS011;37565;51.352;6.412;2022-07-23T07:14:24;0.88;;;0.88;;
51485;SDS011;37565;51.352;6.412;2022-07-23T07:16:52;7.07;;;4.07;;
51485;SDS011;37565;51.352;6.412;2022-07-23T07:19:20;9.00;;;4.82;;
51485;SDS011;37565;51.352;6.412;2022-07-23T07:21:48;6.78;;;4.38;;
51485;SDS011;37565;51.352;6.412;2022-07-23T07:24:16;6.57;;;4.05;;
51485;SDS011;37565;51.352;6.412;2022-07-23T07:26:45;5.70;;;4.47;;
51485;SDS011;37565;51.352;6.412;2022-07-23T07:29:13;6.32;;;3.80;;
51485;SDS011;37565;51.352;6.412;2022-07-23T07:31:41;5.82;;;4.03;;
51485;SDS011;37565;51.352;6.412;2022-07-23T07:34:09;6.18;;;3.97;;
51485;SDS011;37565;51.352;6.412;2022-07-23T07:36:37;5.50;;;3.67;;
51485;SDS011;37565;51.352;6.412;2022-07-23T07:39:05;4.72;;;3.72;;
51485;SDS011;37565;51.352;6.412;2022-07-23T07:41:36;8.93;;;4.47;;
51485;SDS011;37565;51.352;6.412;2022-07-23T07:44:06;9.32;;;3.97;;
51485;SDS011;37565;51.352;6.412;2022-07-23T07:46:34;7.45;;;3.67;;
51485;SDS011;37565;51.352;6.412;2022-07-23T07:49:02;5.10;;;3.00;;
51485;SDS011;37565;51.352;6.412;2022-07-23T07:51:31;5.75;;;2.83;;
51485;SDS011;37565;51.352;6.412;2022-07-23T07:54:00;5.47;;;3.45;;
51485;SDS011;37565;51.352;6.412;2022-07-23T07:56:29;4.43;;;3.40;;
51485;SDS011;37565;51.352;6.412;2022-07-23T07:58:58;5.53;;;3.15;;
51485;SDS011;37565;51.352;6.412;2022-07-23T08:01:28;9.73;;;2.90;;
51485;SDS011;37565;51.352;6.412;2022-07-23T08:03:56;7.13;;;2.88;;
51485;SDS011;37565;51.352;6.412;2022-07-23T08:06:26;6.15;;;2.60;;
51485;SDS011;37565;51.352;6.412;2022-07-23T08:08:54;4.80;;;2.42;;
51485;SDS011;37565;51.352;6.412;2022-07-23T08:11:22;9.75;;;2.22;;
51485;SDS011;37565;51.352;6.412;2022-07-23T08:13:50;2.90;;;2.20;;
51485;SDS011;37565;51.352;6.412;2022-07-23T08:16:18;5.75;;;2.13;;
51485;SDS011;37565;51.352;6.412;2022-07-23T08:18:48;6.40;;;2.58;;
51485;SDS011;37565;51.352;6.412;2022-07-23T08:21:16;5.93;;;2.20;;
51485;SDS011;37565;51.352;6.412;2022-07-23T08:23:44;4.45;;;1.98;;
51485;SDS011;37565;51.352;6.412;2022-07-23T08:26:12;3.42;;;2.05;;
51485;SDS011;37565;51.352;6.412;2022-07-23T08:28:40;4.80;;;1.70;;
51485;SDS011;37565;51.352;6.412;2022-07-23T08:31:08;4.18;;;1.95;;
51485;SDS011;37565;51.352;6.412;2022-07-23T08:33:38;5.95;;;1.80;;
51485;SDS011;37565;51.352;6.412;2022-07-23T08:36:08;4.80;;;1.85;;
51485;SDS011;37565;51.352;6.412;2022-07-23T08:38:37;5.00;;;1.60;;
51485;SDS011;37565;51.352;6.412;2022-07-23T08:41:05;2.90;;;1.60;;
51485;SDS011;37565;51.352;6.412;2022-07-23T08:43:35;1.52;;;1.33;;
51485;SDS011;37565;51.352;6.412;2022-07-23T08:46:03;6.35;;;2.05;;
51485;SDS011;37565;51.352;6.412;2022-07-23T08:48:33;7.43;;;1.70;;
51485;SDS011;37565;51.352;6.412;2022-07-23T08:51:05;2.13;;;1.25;;
51485;SDS011;37565;51.352;6.412;2022-07-23T08:53:36;3.53;;;1.35;;
51485;SDS011;37565;51.352;6.412;2022-07-23T08:56:05;9.50;;;1.65;;
51485;SDS011;37565;51.352;6.412;2022-07-23T08:58:35;2.40;;;1.38;;
51485;SDS011;37565;51.352;6.412;2022-07-23T09:01:03;5.05;;;1.58;;
51485;SDS011;37565;51.352;6.412;2022-07-23T09:03:33;4.82;;;1.20;;
51485;SDS011;37565;51.352;6.412;2022-07-23T09:06:02;3.30;;;1.17;;
51485;SDS011;37565;51.352;6.412;2022-07-23T09:08:36;5.15;;;1.15;;
51485;SDS011;37565;51.352;6.412;2022-07-23T09:11:05;1.35;;;1.15;;
51485;SDS011;37565;51.352;6.412;2022-07-23T09:13:36;2.10;;;1.38;;
51485;SDS011;37565;51.352;6.412;2022-07-23T09:16:09;1.58;;;1.10;;
51485;SDS011;37565;51.352;6.412;2022-07-23T09:18:40;3.10;;;1.30;;
51485;SDS011;37565;51.352;6.412;2022-07-23T09:21:12;3.35;;;1.20;;
51485;SDS011;37565;51.352;6.412;2022-07-23T09:23:43;1.25;;;1.00;;
51485;SDS011;37565;51.352;6.412;2022-07-23T09:26:20;5.15;;;1.23;;
51485;SDS011;37565;51.352;6.412;2022-07-23T09:28:54;6.03;;;1.35;;
51485;SDS011;37565;51.352;6.412;2022-07-23T09:31:24;6.15;;;1.40;;
51485;SDS011;37565;51.352;6.412;2022-07-23T09:34:01;2.65;;;1.38;;
51485;SDS011;37565;51.352;6.412;2022-07-23T09:39:07;1.70;;;1.52;;
51485;SDS011;37565;51.352;6.412;2022-07-23T09:41:37;3.45;;;1.52;;
51485;SDS011;37565;51.352;6.412;2022-07-23T09:44:08;3.67;;;1.30;;
51485;SDS011;37565;51.352;6.412;2022-07-23T09:46:37;1.80;;;1.20;;
51485;SDS011;37565;51.352;6.412;2022-07-23T09:49:11;2.65;;;1.05;;
51485;SDS011;37565;51.352;6.412;2022-07-23T09:51:44;1.38;;;1.20;;
51485;SDS011;37565;51.352;6.412;2022-07-23T09:54:22;2.60;;;1.13;;
51485;SDS011;37565;51.352;6.412;2022-07-23T09:56:54;1.63;;;1.15;;
51485;SDS011;37565;51.352;6.412;2022-07-23T09:59:23;5.20;;;1.20;;
51485;SDS011;37565;51.352;6.412;2022-07-23T10:01:53;4.03;;;1.30;;
51485;SDS011;37565;51.352;6.412;2022-07-23T10:04:23;1.80;;;1.30;;
51485;SDS011;37565;51.352;6.412;2022-07-23T10:06:52;1.92;;;1.48;;
51485;SDS011;37565;51.352;6.412;2022-07-23T10:09:27;4.15;;;1.10;;
51485;SDS011;37565;51.352;6.412;2022-07-23T10:11:57;2.80;;;1.10;;
51485;SDS011;37565;51.352;6.412;2022-07-23T10:14:36;1.58;;;1.25;;
51485;SDS011;37565;51.352;6.412;2022-07-23T10:17:06;3.20;;;1.30;;
51485;SDS011;37565;51.352;6.412;2022-07-23T10:19:35;3.33;;;1.50;;
51485;SDS011;37565;51.352;6.412;2022-07-23T10:22:03;10.13;;;1.30;;
51485;SDS011;37565;51.352;6.412;2022-07-23T10:24:44;1.23;;;1.13;;
51485;SDS011;37565;51.352;6.412;2022-07-23T10:27:26;1.20;;;1.00;;
51485;SDS011;37565;51.352;6.412;2022-07-23T10:30:09;2.10;;;1.42;;
51485;SDS011;37565;51.352;6.412;2022-07-23T10:32:44;1.30;;;1.20;;
51485;SDS011;37565;51.352;6.412;2022-07-23T10:35:21;1.20;;;1.10;;
51485;SDS011;37565;51.352;6.412;2022-07-23T10:37:54;1.88;;;1.20;;
51485;SDS011;37565;51.352;6.412;2022-07-23T10:40:30;3.60;;;1.42;;
51485;SDS011;37565;51.352;6.412;2022-07-23T10:42:59;1.63;;;1.10;;
51485;SDS011;37565;51.352;6.412;2022-07-23T10:45:29;3.97;;;1.33;;
51485;SDS011;37565;51.352;6.412;2022-07-23T10:48:11;3.10;;;1.20;;
51485;SDS011;37565;51.352;6.412;2022-07-23T10:50:41;2.13;;;1.13;;
51485;SDS011;37565;51.352;6.412;2022-07-23T10:53:11;3.45;;;1.25;;
51485;SDS011;37565;51.352;6.412;2022-07-23T10:55:51;5.88;;;1.60;;
51485;SDS011;37565;51.352;6.412;2022-07-23T10:58:20;3.40;;;1.70;;
51485;SDS011;37565;51.352;6.412;2022-07-23T11:00:50;2.45;;;1.58;;
51485;SDS011;37565;51.352;6.412;2022-07-23T11:03:27;9.73;;;1.30;;
51485;SDS011;37565;51.352;6.412;2022-07-23T11:05:59;4.63;;;1.20;;
51485;SDS011;37565;51.352;6.412;2022-07-23T11:08:27;4.82;;;1.65;;
51485;SDS011;37565;51.352;6.412;2022-07-23T11:11:07;6.13;;;2.03;;
51485;SDS011;37565;51.352;6.412;2022-07-23T11:13:40;6.38;;;1.48;;
51485;SDS011;37565;51.352;6.412;2022-07-23T11:16:15;5.72;;;1.52;;
51485;SDS011;37565;51.352;6.412;2022-07-23T11:21:49;3.00;;;1.40;;
51485;SDS011;37565;51.352;6.412;2022-07-23T11:24:18;8.13;;;1.45;;
51485;SDS011;37565;51.352;6.412;2022-07-23T11:27:01;4.20;;;1.23;;
51485;SDS011;37565;51.352;6.412;2022-07-23T11:29:43;1.83;;;1.02;;
51485;SDS011;37565;51.352;6.412;2022-07-23T11:35:18;2.97;;;1.45;;
51485;SDS011;37565;51.352;6.412;2022-07-23T11:37:52;6.43;;;1.55;;
51485;SDS011;37565;51.352;6.412;2022-07-23T11:40:25;4.05;;;1.05;;
51485;SDS011;37565;51.352;6.412;2022-07-23T11:42:57;9.05;;;1.23;;
51485;SDS011;37565;51.352;6.412;2022-07-23T11:45:32;5.75;;;1.00;;
51485;SDS011;37565;51.352;6.412;2022-07-23T11:48:01;3.10;;;0.93;;
51485;SDS011;37565;51.352;6.412;2022-07-23T11:50:30;1.27;;;1.00;;
51485;SDS011;37565;51.352;6.412;2022-07-23T11:52:59;2.35;;;1.00;;
51485;SDS011;37565;51.352;6.412;2022-07-23T11:55:28;2.28;;;1.10;;
51485;SDS011;37565;51.352;6.412;2022-07-23T11:57:57;3.50;;;0.95;;
51485;SDS011;37565;51.352;6.412;2022-07-23T12:00:26;2.10;;;0.80;;
51485;SDS011;37565;51.352;6.412;2022-07-23T12:02:56;2.45;;;1.00;;
51485;SDS011;37565;51.352;6.412;2022-07-23T12:05:28;3.53;;;0.75;;
51485;SDS011;37565;51.352;6.412;2022-07-23T12:08:02;6.30;;;1.30;;
51485;SDS011;37565;51.352;6.412;2022-07-23T12:10:33;3.85;;;0.90;;
51485;SDS011;37565;51.352;6.412;2022-07-23T12:13:04;3.67;;;1.00;;
51485;SDS011;37565;51.352;6.412;2022-07-23T12:15:37;2.25;;;0.90;;
51485;SDS011;37565;51.352;6.412;2022-07-23T12:18:08;3.13;;;1.52;;
51485;SDS011;37565;51.352;6.412;2022-07-23T12:20:38;1.38;;;0.88;;
51485;SDS011;37565;51.352;6.412;2022-07-23T12:23:08;1.17;;;1.00;;
51485;SDS011;37565;51.352;6.412;2022-07-23T12:25:45;1.45;;;1.00;;
51485;SDS011;37565;51.352;6.412;2022-07-23T12:28:16;1.15;;;0.90;;
51485;SDS011;37565;51.352;6.412;2022-07-23T12:30:46;1.40;;;0.90;;
51485;SDS011;37565;51.352;6.412;2022-07-23T12:33:21;2.03;;;1.00;;
51485;SDS011;37565;51.352;6.412;2022-07-23T12:35:51;2.10;;;0.73;;
51485;SDS011;37565;51.352;6.412;2022-07-23T12:38:21;1.88;;;1.00;;
51485;SDS011;37565;51.352;6.412;2022-07-23T12:40:51;4.22;;;1.10;;
51485;SDS011;37565;51.352;6.412;2022-07-23T12:43:23;5.63;;;1.00;;
51485;SDS011;37565;51.352;6.412;2022-07-23T12:45:53;3.92;;;1.30;;
51485;SDS011;37565;51.352;6.412;2022-07-23T12:48:23;9.13;;;1.10;;
51485;SDS011;37565;51.352;6.412;2022-07-23T12:50:56;1.40;;;1.00;;
51485;SDS011;37565;51.352;6.412;2022-07-23T12:53:26;3.28;;;1.00;;
51485;SDS011;37565;51.352;6.412;2022-07-23T12:55:57;2.78;;;0.68;;
51485;SDS011;37565;51.352;6.412;2022-07-23T12:58:42;3.22;;;1.20;;
51485;SDS011;37565;51.352;6.412;2022-07-23T13:01:32;3.35;;;0.88;;
51485;SDS011;37565;51.352;6.412;2022-07-23T13:04:02;4.60;;;1.10;;
51485;SDS011;37565;51.352;6.412;2022-07-23T13:06:40;1.50;;;0.80;;
51485;SDS011;37565;51.352;6.412;2022-07-23T13:09:11;2.05;;;1.00;;
51485;SDS011;37565;51.352;6.412;2022-07-23T13:11:41;5.50;;;0.85;;
51485;SDS011;37565;51.352;6.412;2022-07-23T13:14:11;1.20;;;1.00;;
51485;SDS011;37565;51.352;6.412;2022-07-23T13:16:40;1.67;;;0.80;;
51485;SDS011;37565;51.352;6.412;2022-07-23T13:19:08;3.70;;;1.05;;
51485;SDS011;37565;51.352;6.412;2022-07-23T13:21:38;1.38;;;0.95;;
51485;SDS011;37565;51.352;6.412;2022-07-23T13:24:10;0.63;;;0.63;;
51485;SDS011;37565;51.352;6.412;2022-07-23T13:26:39;1.00;;;0.80;;
51485;SDS011;37565;51.352;6.412;2022-07-23T13:29:07;0.82;;;0.80;;
51485;SDS011;37565;51.352;6.412;2022-07-23T13:31:38;8.30;;;1.02;;
51485;SDS011;37565;51.352;6.412;2022-07-23T13:34:06;3.13;;;0.95;;
51485;SDS011;37565;51.352;6.412;2022-07-23T13:36:34;1.33;;;0.90;;
51485;SDS011;37565;51.352;6.412;2022-07-23T13:39:03;3.83;;;0.80;;
51485;SDS011;37565;51.352;6.412;2022-07-23T13:41:35;3.83;;;0.93;;
51485;SDS011;37565;51.352;6.412;2022-07-23T13:44:04;0.90;;;0.70;;
51485;SDS011;37565;51.352;6.412;2022-07-23T13:46:33;2.55;;;1.08;;
51485;SDS011;37565;51.352;6.412;2022-07-23T13:49:02;5.13;;;0.90;;
51485;SDS011;37565;51.352;6.412;2022-07-23T13:51:34;2.03;;;0.77;;
51485;SDS011;37565;51.352;6.412;2022-07-23T13:54:03;1.13;;;1.08;;
51485;SDS011;37565;51.352;6.412;2022-07-23T13:56:34;1.83;;;0.90;;
51485;SDS011;37565;51.352;6.412;2022-07-23T13:59:03;1.17;;;0.80;;
51485;SDS011;37565;51.352;6.412;2022-07-23T14:01:32;1.80;;;0.80;;
51485;SDS011;37565;51.352;6.412;2022-07-23T14:04:22;2.30;;;0.90;;
51485;SDS011;37565;51.352;6.412;2022-07-23T14:06:50;2.75;;;0.80;;
51485;SDS011;37565;51.352;6.412;2022-07-23T14:09:20;3.65;;;0.90;;
51485;SDS011;37565;51.352;6.412;2022-07-23T14:11:50;0.95;;;0.60;;
51485;SDS011;37565;51.352;6.412;2022-07-23T14:14:19;0.95;;;0.75;;
51485;SDS011;37565;51.352;6.412;2022-07-23T14:16:47;4.50;;;0.90;;
51485;SDS011;37565;51.352;6.412;2022-07-23T14:19:15;1.23;;;0.85;;
51485;SDS011;37565;51.352;6.412;2022-07-23T14:21:45;1.20;;;1.10;;
51485;SDS011;37565;51.352;6.412;2022-07-23T14:24:15;3.58;;;1.30;;
51485;SDS011;37565;51.352;6.412;2022-07-23T14:26:44;2.63;;;0.88;;
51485;SDS011;37565;51.352;6.412;2022-07-23T14:29:12;3.40;;;1.00;;
51485;SDS011;37565;51.352;6.412;2022-07-23T14:31:40;4.53;;;0.80;;
51485;SDS011;37565;51.352;6.412;2022-07-23T14:34:09;0.70;;;0.70;;
51485;SDS011;37565;51.352;6.412;2022-07-23T14:36:37;1.70;;;0.80;;
51485;SDS011;37565;51.352;6.412;2022-07-23T14:39:07;1.40;;;1.10;;
51485;SDS011;37565;51.352;6.412;2022-07-23T14:41:36;0.80;;;0.80;;
51485;SDS011;37565;51.352;6.412;2022-07-23T14:44:04;2.35;;;0.90;;
51485;SDS011;37565;51.352;6.412;2022-07-23T14:46:35;1.33;;;0.95;;
51485;SDS011;37565;51.352;6.412;2022-07-23T14:49:03;0.95;;;0.80;;
51485;SDS011;37565;51.352;6.412;2022-07-23T14:51:33;1.40;;;0.90;;
51485;SDS011;37565;51.352;6.412;2022-07-23T14:54:02;1.33;;;1.05;;
51485;SDS011;37565;51.352;6.412;2022-07-23T14:56:33;1.00;;;0.90;;
51485;SDS011;37565;51.352;6.412;2022-07-23T14:59:02;1.23;;;1.10;;
51485;SDS011;37565;51.352;6.412;2022-07-23T15:01:31;3.22;;;0.80;;
51485;SDS011;37565;51.352;6.412;2022-07-23T15:04:00;2.22;;;0.88;;
51485;SDS011;37565;51.352;6.412;2022-07-23T15:06:48;2.35;;;1.00;;
51485;SDS011;37565;51.352;6.412;2022-07-23T15:09:16;1.08;;;1.05;;
51485;SDS011;37565;51.352;6.412;2022-07-23T15:11:46;0.88;;;0.82;;